Time;durP1;ratioP1;P1;durP2;ratioP2;P2;SDS_P1;SDS_P2;PMS_P1;PMS_P2;Temp;Humidity;BMP_temperature;BMP_pressure;BME280_temperature;BME280_humidity;BME280_pressure;Samples;Min_cycle;Max_cycle;Signal;HPM_P1;HPM_P2
2022/09/30 00:01:28;;;;;;;13.13;11.80;;;;;;;8.10;100.00;95832.28;4936339;29;20277;-70
2022/09/30 00:03:55;;;;;;;13.80;12.00;;;;;;;8.17;100.00;95827.72;4949246;29;20227;-71
2022/09/30 00:06:21;;;;;;;12.20;11.00;;;;;;;8.17;100.00;95827.72;4935721;29;20189;-70
2022/09/30 00:08:46;;;;;;;12.73;11.33;;;;;;;8.22;100.00;95819.97;4935209;29;20297;-70
2022/09/30 00:11:19;;;;;;;14.77;13.37;;;;;;;8.19;100.00;95821.22;4935718;29;20769;-68
2022/09/30 00:13:47;;;;;;;13.57;12.37;;;;;;;8.05;100.00;95817.31;4938690;29;20250;-68
2022/09/30 00:16:14;;;;;;;13.40;12.20;;;;;;;8.12;100.00;95819.78;4947313;29;20193;-70
2022/09/30 00:18:40;;;;;;;12.87;11.90;;;;;;;8.05;100.00;95819.13;4946043;29;20193;-70
2022/09/30 00:21:07;;;;;;;14.83;13.33;;;;;;;7.96;100.00;95817.94;4942328;29;20201;-72
2022/09/30 00:23:33;;;;;;;15.00;13.50;;;;;;;8.01;100.00;95818.03;4950356;29;20256;-72
2022/09/30 00:26:02;;;;;;;15.37;13.87;;;;;;;8.27;100.00;95817.44;4935310;29;20221;-70
2022/09/30 00:28:28;;;;;;;15.27;13.87;;;;;;;8.40;100.00;95817.16;4935128;29;20198;-69
2022/09/30 00:30:58;;;;;;;14.83;13.53;;;;;;;8.45;100.00;95825.09;4946522;29;20193;-69
2022/09/30 00:33:23;;;;;;;16.00;14.27;;;;;;;8.45;100.00;95827.69;4953116;29;20193;-69
2022/09/30 00:35:48;;;;;;;15.60;14.13;;;;;;;8.52;100.00;95830.97;4935548;29;20639;-70
2022/09/30 00:38:14;;;;;;;16.33;14.70;;;;;;;8.62;100.00;95830.31;4935628;29;20197;-70
2022/09/30 00:40:39;;;;;;;15.60;14.07;;;;;;;8.72;100.00;95835.69;4944481;29;20193;-70
2022/09/30 00:43:13;;;;;;;15.30;13.90;;;;;;;8.54;100.00;95841.94;4954153;29;20213;-70
2022/09/30 00:45:43;;;;;;;16.10;13.93;;;;;;;8.50;100.00;95824.38;4935915;29;20174;-70
2022/09/30 00:48:16;;;;;;;17.60;15.77;;;;;;;8.49;100.00;95836.63;4935332;29;20186;-70
2022/09/30 00:50:48;;;;;;;15.30;13.87;;;;;;;8.45;100.00;95837.34;4944062;29;20209;-69
2022/09/30 00:53:31;;;;;;;14.87;13.47;;;;;;;8.40;100.00;95837.28;4953929;29;20190;-70
2022/09/30 00:56:00;;;;;;;15.60;14.13;;;;;;;8.50;100.00;95842.66;4937647;29;20273;-70
2022/09/30 00:58:28;;;;;;;14.73;13.43;;;;;;;8.50;100.00;95837.44;4953731;29;20177;-70
2022/09/30 01:00:54;;;;;;;15.77;14.17;;;;;;;8.38;100.00;95837.50;4943655;29;20209;-70
2022/09/30 01:03:21;;;;;;;15.00;13.63;;;;;;;8.61;100.00;95841.78;4935434;29;20265;-70
2022/09/30 01:05:48;;;;;;;13.90;12.60;;;;;;;8.49;100.00;95839.25;4934451;29;20181;-70
2022/09/30 01:08:17;;;;;;;12.70;11.40;;;;;;;8.45;100.00;95843.38;4935006;29;20195;-70
2022/09/30 01:10:42;;;;;;;13.00;11.70;;;;;;;8.27;100.00;95846.16;4942959;29;20239;-70
2022/09/30 01:13:08;;;;;;;14.70;12.27;;;;;;;8.22;100.00;95844.25;4954784;28;20189;-70
2022/09/30 01:16:14;;;;;;;14.20;12.57;;;;;;;8.15;100.00;95846.19;4940941;29;20186;-70
2022/09/30 01:18:53;;;;;;;14.03;12.73;;;;;;;8.29;100.00;95850.13;4939551;29;20197;-70
2022/09/30 01:21:56;;;;;;;13.43;12.30;;;;;;;8.35;100.00;95853.66;4951025;29;20271;-70
2022/09/30 01:24:46;;;;;;;13.03;11.83;;;;;;;8.53;100.00;95848.19;4948832;29;20670;-70
2022/09/30 01:27:17;;;;;;;15.00;12.67;;;;;;;8.39;100.00;95859.19;4938524;29;20197;-70
2022/09/30 01:29:50;;;;;;;13.87;12.67;;;;;;;8.47;100.00;95849.13;4938387;29;20186;-70
2022/09/30 01:32:32;;;;;;;14.73;13.50;;;;;;;8.48;100.00;95848.09;4938059;29;20403;-70
2022/09/30 01:35:04;;;;;;;15.63;14.23;;;;;;;8.54;100.00;95847.16;4949210;29;20178;-70
2022/09/30 01:37:43;;;;;;;14.73;13.23;;;;;;;8.47;100.00;95841.28;4957224;29;20190;-70
2022/09/30 01:40:21;;;;;;;15.27;13.87;;;;;;;8.38;100.00;95845.31;4957319;29;20200;-70
2022/09/30 01:43:06;;;;;;;14.60;13.20;;;;;;;8.39;100.00;95833.88;4957182;29;20252;-70
2022/09/30 01:45:42;;;;;;;14.93;13.13;;;;;;;8.28;100.00;95834.69;4940457;29;20612;-70
2022/09/30 01:48:36;;;;;;;15.57;13.10;;;;;;;8.41;100.00;95828.41;4941938;29;20180;-70
2022/09/30 01:51:14;;;;;;;14.53;13.00;;;;;;;8.29;100.00;95841.50;4923009;29;20311;-70
2022/09/30 01:53:49;;;;;;;15.13;13.80;;;;;;;8.20;100.00;95855.94;4938575;29;20213;-70
2022/09/30 01:56:26;;;;;;;15.40;14.03;;;;;;;8.15;100.00;95850.63;4956597;29;20177;-70
2022/09/30 01:59:32;;;;;;;15.23;13.90;;;;;;;8.17;100.00;95849.38;4956880;29;20240;-70
2022/09/30 02:02:05;;;;;;;16.63;15.20;;;;;;;8.10;100.00;95853.94;4948140;29;20252;-70
2022/09/30 02:04:36;;;;;;;18.90;17.23;;;;;;;8.25;100.00;95859.44;4944188;29;20181;-70
2022/09/30 02:07:07;;;;;;;20.90;18.70;;;;;;;8.25;100.00;95863.84;4938270;29;20213;-70
2022/09/30 02:09:48;;;;;;;27.27;24.77;;;;;;;8.37;100.00;95863.84;4937392;29;20226;-70
2022/09/30 02:12:19;;;;;;;26.33;23.47;;;;;;;8.15;100.00;95869.69;4936400;29;20486;-70
2022/09/30 02:15:07;;;;;;;21.87;19.90;;;;;;;8.02;100.00;95877.03;4947699;29;20268;-70
2022/09/30 02:17:40;;;;;;;18.67;17.07;;;;;;;7.96;100.00;95880.56;4948258;29;20658;-70
2022/09/30 02:20:12;;;;;;;16.33;14.90;;;;;;;8.04;100.00;95874.97;4948809;29;20197;-70
2022/09/30 02:22:53;;;;;;;18.23;16.50;;;;;;;8.37;100.00;95875.06;4921998;29;20277;-70
2022/09/30 02:25:26;;;;;;;16.47;14.97;;;;;;;8.29;100.00;95876.22;4949451;29;20193;-69
2022/09/30 02:27:56;;;;;;;13.93;12.73;;;;;;;8.10;100.00;95864.38;4956396;29;20228;-70
2022/09/30 02:30:22;;;;;;;14.10;12.90;;;;;;;7.98;100.00;95862.84;4955835;29;20264;-70
2022/09/30 02:32:52;;;;;;;14.20;12.90;;;;;;;7.98;100.00;95863.63;4955919;29;20268;-70
2022/09/30 02:35:26;;;;;;;15.57;14.07;;;;;;;7.92;100.00;95873.19;4948621;29;20174;-70
2022/09/30 02:38:05;;;;;;;15.23;13.77;;;;;;;7.86;100.00;95878.53;4955757;29;20186;-71
2022/09/30 02:40:38;;;;;;;16.93;15.23;;;;;;;7.98;100.00;95886.31;4953895;29;20185;-70
2022/09/30 02:43:04;;;;;;;19.43;16.87;;;;;;;7.81;100.00;95886.25;4942754;29;20216;-70
2022/09/30 02:45:40;;;;;;;18.27;16.37;;;;;;;7.72;100.00;95885.03;4953007;29;20195;-70
2022/09/30 02:48:23;;;;;;;18.47;16.57;;;;;;;7.75;100.00;95882.75;4955218;29;20185;-70
2022/09/30 02:50:57;;;;;;;17.70;15.87;;;;;;;7.87;100.00;95888.72;4956026;29;20184;-70
2022/09/30 02:54:21;;;;;;;17.83;16.33;;;;;;;7.89;100.00;95896.34;4940381;29;20248;-70
2022/09/30 02:56:56;;;;;;;16.37;14.93;;;;;;;7.90;100.00;95897.94;4884272;29;20206;-70
2022/09/30 02:59:23;;;;;;;17.17;15.23;;;;;;;7.89;100.00;95901.56;4921318;29;20177;-70
2022/09/30 03:01:48;;;;;;;16.17;14.60;;;;;;;7.95;100.00;95900.63;4936919;29;20261;-70
2022/09/30 03:04:27;;;;;;;17.27;15.43;;;;;;;8.00;100.00;95900.72;4936747;29;20722;-70
2022/09/30 03:06:54;;;;;;;17.13;15.20;;;;;;;8.11;100.00;95899.91;4952432;29;20285;-70
2022/09/30 03:09:24;;;;;;;16.60;14.23;;;;;;;8.03;100.00;95909.91;4936369;29;20226;-70
2022/09/30 03:11:54;;;;;;;16.30;14.40;;;;;;;7.84;100.00;95902.25;4936674;29;20234;-70
2022/09/30 03:14:37;;;;;;;15.37;13.87;;;;;;;7.99;100.00;95904.34;4936500;29;20340;-70
2022/09/30 03:17:30;;;;;;;16.20;14.50;;;;;;;7.89;100.00;95906.78;4954804;29;20169;-70
2022/09/30 03:20:19;;;;;;;16.03;14.40;;;;;;;7.73;100.00;95915.31;4947396;29;20202;-70
2022/09/30 03:23:02;;;;;;;15.80;14.20;;;;;;;7.96;100.00;95917.88;4936546;29;20194;-70
2022/09/30 03:25:55;;;;;;;14.80;13.30;;;;;;;7.92;100.00;95920.13;4941989;29;20256;-70
2022/09/30 03:28:26;;;;;;;17.17;15.33;;;;;;;7.94;100.00;95920.72;4955555;29;20192;-70
2022/09/30 03:31:32;;;;;;;19.97;15.70;;;;;;;7.71;100.00;95925.19;4943656;29;20634;-71
2022/09/30 03:34:32;;;;;;;16.33;14.67;;;;;;;7.69;100.00;95928.00;4943247;29;20216;-70
2022/09/30 03:37:39;;;;;;;16.83;15.17;;;;;;;7.75;100.00;95929.69;4936633;29;20179;-71
2022/09/30 03:40:16;;;;;;;17.50;14.93;;;;;;;7.74;100.00;95927.34;4931117;29;20240;-71
2022/09/30 03:42:53;;;;;;;17.13;15.50;;;;;;;7.71;100.00;95933.78;4936154;29;20577;-70
2022/09/30 03:45:30;;;;;;;20.57;14.87;;;;;;;7.45;100.00;95936.88;4940096;29;20910;-69
2022/09/30 03:48:01;;;;;;;17.03;15.20;;;;;;;7.54;100.00;95945.94;4955169;29;20264;-70
2022/09/30 03:50:28;;;;;;;17.03;15.13;;;;;;;7.41;100.00;95943.59;4947825;29;20230;-70
2022/09/30 03:52:54;;;;;;;16.80;15.10;;;;;;;7.48;100.00;95945.03;4936156;29;20191;-70
2022/09/30 03:55:21;;;;;;;17.87;15.37;;;;;;;7.48;100.00;95928.59;4939951;29;20186;-70
2022/09/30 03:57:48;;;;;;;17.37;15.43;;;;;;;7.48;100.00;95933.81;4954710;29;20236;-70
2022/09/30 04:00:14;;;;;;;18.37;16.47;;;;;;;7.44;100.00;95930.09;4954464;29;20662;-70
2022/09/30 04:02:40;;;;;;;18.87;17.07;;;;;;;7.62;100.00;95931.78;4954526;29;20244;-70
2022/09/30 04:05:06;;;;;;;18.37;16.57;;;;;;;7.40;100.00;95939.38;4953126;29;20638;-70
2022/09/30 04:07:31;;;;;;;21.07;18.97;;;;;;;7.27;100.00;95945.59;4935512;29;20279;-70
2022/09/30 04:09:57;;;;;;;18.97;16.97;;;;;;;7.43;100.00;95946.75;4934965;29;20222;-70
2022/09/30 04:12:22;;;;;;;17.60;15.90;;;;;;;7.44;100.00;95951.75;4935313;29;20198;-70
2022/09/30 04:14:48;;;;;;;17.67;15.87;;;;;;;7.55;100.00;95962.38;4936021;29;20265;-70
2022/09/30 04:17:13;;;;;;;20.07;15.67;;;;;;;7.52;100.00;95955.81;4952898;29;20199;-71
2022/09/30 04:19:39;;;;;;;19.17;16.17;;;;;;;7.60;100.00;95968.50;4947407;29;20656;-71
2022/09/30 04:22:06;;;;;;;20.50;16.10;;;;;;;7.48;100.00;95962.50;4943899;29;20181;-70
2022/09/30 04:24:32;;;;;;;17.33;15.63;;;;;;;7.48;100.00;95965.91;4953949;29;20975;-70
2022/09/30 04:26:57;;;;;;;18.10;15.37;;;;;;;7.46;100.00;95960.13;4938649;29;20190;-70
2022/09/30 04:29:23;;;;;;;21.57;15.97;;;;;;;7.55;100.00;95967.59;4935166;29;20186;-70
2022/09/30 04:31:49;;;;;;;17.93;15.73;;;;;;;7.52;100.00;95968.88;4941342;29;20200;-70
2022/09/30 04:34:14;;;;;;;19.40;14.37;;;;;;;7.45;100.00;95968.97;4954393;29;20185;-71
2022/09/30 04:36:39;;;;;;;17.23;14.47;;;;;;;7.45;100.00;95968.97;4924074;29;20201;-70
2022/09/30 04:39:05;;;;;;;17.23;14.53;;;;;;;7.37;100.00;95973.72;4950957;29;20193;-71
2022/09/30 04:41:32;;;;;;;15.53;14.00;;;;;;;7.31;100.00;95969.41;4954583;29;20189;-71
2022/09/30 04:43:59;;;;;;;16.83;15.07;;;;;;;7.36;100.00;95972.91;4954103;29;20186;-71
2022/09/30 04:46:25;;;;;;;17.70;16.00;;;;;;;7.14;100.00;95973.69;4943099;29;20546;-71
2022/09/30 04:48:50;;;;;;;19.90;16.17;;;;;;;7.30;100.00;95976.41;4951905;29;20199;-71
2022/09/30 04:51:20;;;;;;;18.13;16.43;;;;;;;7.18;100.00;95974.84;4957511;29;20181;-71
2022/09/30 04:53:47;;;;;;;16.97;14.53;;;;;;;7.21;100.00;95977.00;4957760;29;20194;-71
2022/09/30 04:56:13;;;;;;;24.07;17.37;;;;;;;7.01;100.00;95988.53;4948506;29;20190;-71
2022/09/30 04:58:38;;;;;;;20.17;17.03;;;;;;;6.79;100.00;95987.44;4951498;29;20265;-71
2022/09/30 05:01:06;;;;;;;20.63;18.53;;;;;;;6.71;100.00;95990.34;4956872;29;20667;-71
2022/09/30 05:03:33;;;;;;;22.07;18.97;;;;;;;6.60;100.00;95998.91;4938688;29;20202;-71
2022/09/30 05:05:58;;;;;;;35.87;19.67;;;;;;;6.50;100.00;95998.66;4945967;29;20178;-71
2022/09/30 05:08:23;;;;;;;33.30;18.27;;;;;;;6.48;100.00;96008.47;4947136;29;20198;-71
2022/09/30 05:10:56;;;;;;;73.10;19.30;;;;;;;6.35;100.00;96003.47;4908952;29;20607;-71
2022/09/30 05:13:24;;;;;;;25.83;17.60;;;;;;;6.40;100.00;96012.19;4903026;29;20197;-71
2022/09/30 05:15:50;;;;;;;23.90;19.03;;;;;;;6.45;100.00;96014.13;4913666;29;20609;-71
2022/09/30 05:18:16;;;;;;;29.33;19.10;;;;;;;6.55;100.00;96017.81;4912435;29;20290;-71
2022/09/30 05:20:41;;;;;;;34.67;18.43;;;;;;;6.48;100.00;96017.09;4917072;29;20672;-70
2022/09/30 05:23:07;;;;;;;26.00;19.53;;;;;;;6.41;100.00;96024.19;4918943;29;20281;-71
2022/09/30 05:25:34;;;;;;;36.23;20.03;;;;;;;6.39;100.00;96022.81;4913688;29;20258;-70
2022/09/30 05:28:00;;;;;;;26.80;18.13;;;;;;;6.46;100.00;96026.94;4909753;29;20205;-69
2022/09/30 05:30:26;;;;;;;22.20;18.23;;;;;;;6.48;100.00;96019.69;4919315;29;20191;-70
2022/09/30 05:32:52;;;;;;;22.13;19.43;;;;;;;6.37;100.00;96017.81;4918589;29;20194;-70
2022/09/30 05:35:17;;;;;;;23.23;19.70;;;;;;;6.44;100.00;96028.97;4898923;29;20497;-70
2022/09/30 05:37:42;;;;;;;34.27;17.67;;;;;;;6.45;100.00;96030.56;4907105;29;20694;-70
2022/09/30 05:40:08;;;;;;;27.00;18.53;;;;;;;6.62;100.00;96031.53;4908588;29;20193;-70
2022/09/30 05:42:35;;;;;;;38.40;21.10;;;;;;;6.52;100.00;96033.09;4899947;29;20572;-70
2022/09/30 05:45:02;;;;;;;37.97;19.33;;;;;;;6.54;100.00;96034.44;4901209;29;20555;-70
2022/09/30 05:47:28;;;;;;;26.47;19.70;;;;;;;6.50;100.00;96029.91;4918755;29;20195;-70
2022/09/30 05:49:53;;;;;;;23.33;17.87;;;;;;;6.43;100.00;96036.97;4919030;29;20178;-70
2022/09/30 05:52:19;;;;;;;22.43;18.17;;;;;;;6.74;100.00;96039.41;4918930;29;20704;-70
2022/09/30 05:54:44;;;;;;;19.53;17.27;;;;;;;6.79;100.00;96038.75;4918728;29;20186;-69
2022/09/30 05:57:10;;;;;;;19.67;17.77;;;;;;;6.59;100.00;96042.38;4902044;29;20563;-70
2022/09/30 05:59:36;;;;;;;20.43;17.83;;;;;;;6.63;100.00;96043.53;4917364;29;20186;-69
2022/09/30 06:02:02;;;;;;;19.37;17.57;;;;;;;6.69;100.00;96047.06;4918620;29;20235;-69
2022/09/30 06:04:28;;;;;;;20.50;18.27;;;;;;;6.91;100.00;96044.78;4918566;29;20546;-69
2022/09/30 06:06:53;;;;;;;27.10;19.10;;;;;;;6.80;100.00;96048.16;4916652;29;20186;-69
2022/09/30 06:09:18;;;;;;;17.80;16.13;;;;;;;6.79;100.00;96051.75;4921086;29;20632;-69
2022/09/30 06:11:44;;;;;;;18.67;15.97;;;;;;;6.88;100.00;96056.44;4937364;29;20271;-69
2022/09/30 06:14:09;;;;;;;19.47;17.60;;;;;;;6.90;100.00;96056.22;4937346;29;20197;-69
2022/09/30 06:16:35;;;;;;;23.63;21.37;;;;;;;7.08;100.00;96050.94;4921907;29;20187;-69
2022/09/30 06:19:00;;;;;;;18.17;16.47;;;;;;;7.08;100.00;96049.13;4919019;29;20191;-68
2022/09/30 06:21:27;;;;;;;15.37;13.73;;;;;;;7.39;100.00;96055.91;4932856;29;20230;-69
2022/09/30 06:23:52;;;;;;;19.97;18.00;;;;;;;7.90;100.00;96052.66;4917995;29;20218;-69
2022/09/30 06:26:18;;;;;;;17.40;15.73;;;;;;;8.00;100.00;96062.50;4929717;29;20610;-68
2022/09/30 06:28:44;;;;;;;17.33;15.90;;;;;;;8.24;100.00;96061.47;4936081;29;20884;-69
2022/09/30 06:31:10;;;;;;;16.47;15.03;;;;;;;8.40;100.00;96069.66;4934169;29;20647;-69
2022/09/30 06:33:35;;;;;;;15.43;14.13;;;;;;;8.53;100.00;96080.63;4923992;29;20197;-69
2022/09/30 06:36:03;;;;;;;12.83;11.73;;;;;;;8.69;100.00;96082.50;4936216;29;20193;-69
2022/09/30 06:38:34;;;;;;;15.83;14.63;;;;;;;8.86;100.00;96081.81;4921726;29;20277;-68
2022/09/30 06:41:00;;;;;;;15.13;13.93;;;;;;;9.16;100.00;96077.13;4924582;29;20179;-68
2022/09/30 06:43:25;;;;;;;14.27;13.27;;;;;;;9.16;100.00;96087.56;4917628;29;20230;-68
2022/09/30 06:45:50;;;;;;;12.23;11.27;;;;;;;9.17;100.00;96091.78;4917734;29;20195;-69
2022/09/30 06:48:17;;;;;;;12.73;11.73;;;;;;;9.22;100.00;96091.06;4930413;29;20182;-69
2022/09/30 06:50:42;;;;;;;12.47;11.37;;;;;;;9.30;100.00;96088.88;4931381;29;20278;-69
2022/09/30 06:53:11;;;;;;;18.27;17.07;;;;;;;9.16;100.00;96096.22;4917592;29;20265;-69
2022/09/30 06:55:40;;;;;;;19.87;18.57;;;;;;;9.06;100.00;96106.50;4900792;29;20533;-69
2022/09/30 06:58:11;;;;;;;12.80;11.90;;;;;;;8.29;100.00;96107.78;4932651;29;20627;-68
2022/09/30 07:00:37;;;;;;;9.33;8.63;;;;;;;8.73;100.00;96111.59;4933586;29;20238;-68
2022/09/30 07:03:08;;;;;;;12.13;11.07;;;;;;;8.46;100.00;96116.53;4917567;29;20577;-68
2022/09/30 07:05:34;;;;;;;17.97;16.53;;;;;;;8.42;100.00;96114.59;4925068;29;20213;-68
2022/09/30 07:07:59;;;;;;;18.87;17.10;;;;;;;8.58;100.00;96119.91;4936374;29;20608;-68
2022/09/30 07:10:25;;;;;;;21.47;19.87;;;;;;;8.47;100.00;96117.31;4918303;29;20282;-68
2022/09/30 07:12:51;;;;;;;22.53;20.43;;;;;;;8.56;100.00;96123.78;4917294;29;20218;-69
2022/09/30 07:15:21;;;;;;;22.37;20.27;;;;;;;8.47;100.00;96125.16;4925580;29;20277;-68
2022/09/30 07:17:51;;;;;;;22.07;19.77;;;;;;;8.55;100.00;96130.03;4936282;29;20181;-68
2022/09/30 07:20:16;;;;;;;27.10;20.37;;;;;;;8.48;100.00;96131.94;4919379;29;20194;-69
2022/09/30 07:22:42;;;;;;;18.13;16.33;;;;;;;8.34;100.00;96136.63;4929917;29;20213;-69
2022/09/30 07:25:08;;;;;;;18.63;16.63;;;;;;;8.25;100.00;96140.56;4925829;29;20174;-69
2022/09/30 07:27:34;;;;;;;17.40;15.70;;;;;;;8.65;100.00;96138.84;4936077;29;20182;-68
2022/09/30 07:30:00;;;;;;;18.50;16.77;;;;;;;8.79;100.00;96136.78;4935734;29;20344;-69
2022/09/30 07:32:26;;;;;;;20.23;18.30;;;;;;;8.53;100.00;96145.91;4934765;29;20220;-68
2022/09/30 07:34:52;;;;;;;23.17;20.73;;;;;;;8.54;100.00;96147.50;4929080;29;20217;-68
2022/09/30 07:37:18;;;;;;;19.60;16.37;;;;;;;8.73;100.00;96142.94;4917034;29;20202;-69
2022/09/30 07:39:46;;;;;;;23.03;14.53;;;;;;;8.80;100.00;96145.44;4916808;29;20215;-69
2022/09/30 07:42:14;;;;;;;19.20;16.07;;;;;;;9.20;100.00;96148.81;4927955;29;20627;-69
2022/09/30 07:44:43;;;;;;;21.47;16.13;;;;;;;9.17;100.00;96152.72;4931160;29;20183;-69
2022/09/30 07:47:13;;;;;;;21.37;16.30;;;;;;;9.19;100.00;96152.47;4916947;29;20194;-68
2022/09/30 07:49:39;;;;;;;19.93;15.87;;;;;;;9.43;100.00;96156.56;4916895;29;20221;-69
2022/09/30 07:52:04;;;;;;;18.87;15.83;;;;;;;9.60;100.00;96161.84;4917780;29;20218;-69
2022/09/30 07:54:31;;;;;;;21.23;17.37;;;;;;;9.66;100.00;96157.47;4916866;29;20277;-69
2022/09/30 07:56:58;;;;;;;19.20;17.50;;;;;;;10.14;100.00;96167.44;4918009;29;20273;-69
2022/09/30 07:59:26;;;;;;;15.67;14.27;;;;;;;10.00;100.00;96169.56;4916836;29;20201;-69
2022/09/30 08:01:51;;;;;;;16.60;15.10;;;;;;;9.89;100.00;96175.69;4918428;29;20194;-69
2022/09/30 08:04:18;;;;;;;18.77;17.03;;;;;;;10.26;100.00;96178.63;4916450;29;20217;-69
2022/09/30 08:06:55;;;;;;;18.47;17.07;;;;;;;10.40;100.00;96174.69;4932708;29;20576;-69
2022/09/30 08:09:24;;;;;;;18.13;16.73;;;;;;;9.88;100.00;96179.31;4935232;29;20276;-69
2022/09/30 08:11:50;;;;;;;17.77;16.27;;;;;;;10.17;100.00;96180.09;4923016;29;20564;-69
2022/09/30 08:14:18;;;;;;;16.33;14.93;;;;;;;10.36;100.00;96184.06;4919705;29;20198;-69
2022/09/30 08:16:44;;;;;;;16.10;14.70;;;;;;;10.22;100.00;96185.41;4921261;29;20187;-69
2022/09/30 08:19:18;;;;;;;17.40;15.80;;;;;;;10.40;100.00;96190.41;4918496;29;20250;-69
2022/09/30 08:21:44;;;;;;;17.57;16.07;;;;;;;10.71;100.00;96189.78;4918018;29;20193;-69
2022/09/30 08:24:10;;;;;;;17.17;15.20;;;;;;;10.87;100.00;96193.38;4908163;29;20241;-68
2022/09/30 08:26:37;;;;;;;18.80;17.00;;;;;;;10.79;100.00;96192.00;4916117;29;20219;-68
2022/09/30 08:29:02;;;;;;;18.87;17.23;;;;;;;10.67;100.00;96190.50;4915795;29;20179;-69
2022/09/30 08:31:28;;;;;;;16.23;14.83;;;;;;;10.57;100.00;96193.00;4916069;29;20273;-69
2022/09/30 08:33:53;;;;;;;17.30;15.70;;;;;;;10.40;100.00;96198.25;4915931;29;20182;-69
2022/09/30 08:36:22;;;;;;;28.13;25.93;;;;;;;10.60;100.00;96197.75;4916103;29;20498;-69
2022/09/30 08:38:48;;;;;;;29.73;27.60;;;;;;;10.66;100.00;96194.16;4915645;29;20644;-69
2022/09/30 08:41:23;;;;;;;23.47;21.67;;;;;;;10.66;100.00;96188.91;4898496;29;20651;-69
2022/09/30 08:44:05;;;;;;;18.63;16.83;;;;;;;10.42;100.00;96199.59;4916124;29;20200;-69
2022/09/30 08:46:52;;;;;;;16.50;14.80;;;;;;;10.43;100.00;96203.78;4916129;29;20179;-69
2022/09/30 08:49:30;;;;;;;24.23;21.87;;;;;;;10.67;100.00;96206.22;4916848;29;20179;-69
2022/09/30 08:51:59;;;;;;;25.30;22.90;;;;;;;10.72;100.00;96195.81;4929015;29;20269;-69
2022/09/30 08:54:30;;;;;;;20.83;18.63;;;;;;;10.69;100.00;96193.69;4932813;29;20190;-69
2022/09/30 08:56:57;;;;;;;23.67;21.40;;;;;;;10.91;100.00;96202.38;4934490;29;20237;-68
2022/09/30 08:59:35;;;;;;;24.33;22.27;;;;;;;10.54;100.00;96207.34;4927492;29;20555;-69
2022/09/30 09:02:19;;;;;;;28.23;25.53;;;;;;;10.54;100.00;96206.56;4927564;29;20218;-69
2022/09/30 09:04:46;;;;;;;18.30;16.23;;;;;;;10.46;100.00;96213.00;4928130;29;20193;-69
2022/09/30 09:07:22;;;;;;;17.07;15.43;;;;;;;10.26;100.00;96216.09;4925674;29;20702;-69
2022/09/30 09:10:11;;;;;;;21.03;17.63;;;;;;;10.30;100.00;96211.19;4933256;29;20225;-69
2022/09/30 09:13:04;;;;;;;19.43;17.53;;;;;;;10.31;100.00;96207.53;4934239;29;20281;-69
2022/09/30 09:15:44;;;;;;;20.37;18.37;;;;;;;10.59;100.00;96212.66;4926259;29;20187;-69
2022/09/30 09:18:34;;;;;;;19.27;17.33;;;;;;;10.34;100.00;96218.34;4915346;29;20194;-68
2022/09/30 09:21:28;;;;;;;24.90;22.63;;;;;;;10.46;100.00;96212.22;4915613;29;20198;-68
2022/09/30 09:23:59;;;;;;;27.73;25.43;;;;;;;10.71;100.00;96217.81;4928781;29;20202;-69
2022/09/30 09:26:26;;;;;;;30.40;27.77;;;;;;;10.43;100.00;96216.09;4929502;29;20186;-69
2022/09/30 09:29:10;;;;;;;29.17;26.80;;;;;;;10.49;100.00;96216.97;4932603;29;20309;-68
2022/09/30 09:31:36;;;;;;;29.70;27.37;;;;;;;11.01;100.00;96212.19;4934451;29;20193;-68
2022/09/30 09:34:09;;;;;;;27.03;24.87;;;;;;;11.02;100.00;96217.22;4930748;29;20197;-69
2022/09/30 09:36:52;;;;;;;23.47;21.17;;;;;;;10.51;100.00;96218.31;4919118;29;20194;-68
2022/09/30 09:39:49;;;;;;;23.53;21.43;;;;;;;10.51;100.00;96220.16;4918903;29;20607;-69
2022/09/30 09:42:49;;;;;;;29.67;27.37;;;;;;;10.70;100.00;96224.13;4918869;29;20203;-68
2022/09/30 09:45:33;;;;;;;31.63;29.17;;;;;;;10.94;100.00;96229.94;4928965;29;20276;-69
2022/09/30 09:47:59;;;;;;;31.73;29.23;;;;;;;10.71;100.00;96225.69;4921618;29;20640;-69
2022/09/30 09:50:28;;;;;;;31.83;29.43;;;;;;;11.09;100.00;96228.28;4916133;29;20190;-68
2022/09/30 09:53:29;;;;;;;32.23;29.73;;;;;;;11.50;100.00;96226.16;4919791;29;20182;-68
2022/09/30 09:55:58;;;;;;;24.93;22.83;;;;;;;11.24;100.00;96228.50;4929326;29;20178;-69
2022/09/30 09:58:24;;;;;;;20.53;18.77;;;;;;;11.37;100.00;96224.69;4920224;29;20194;-69
2022/09/30 10:03:22;;;;;;;22.63;20.70;;;;;;;11.31;100.00;96236.19;4918689;29;20211;-69
2022/09/30 10:06:02;;;;;;;25.23;23.20;;;;;;;11.64;100.00;96238.69;4927193;29;20222;-70
2022/09/30 10:08:30;;;;;;;22.07;20.17;;;;;;;12.02;100.00;96234.34;4937105;29;20182;-68
2022/09/30 10:10:58;;;;;;;16.17;14.67;;;;;;;11.99;100.00;96238.25;4936709;29;20222;-69
2022/09/30 10:13:44;;;;;;;13.37;12.10;;;;;;;11.41;100.00;96240.75;4910086;29;20194;-69
2022/09/30 10:16:35;;;;;;;12.13;10.97;;;;;;;11.67;98.04;96242.63;4922383;29;20213;-69
2022/09/30 10:19:03;;;;;;;10.73;9.73;;;;;;;12.13;97.97;96251.78;4919290;29;20291;-69
2022/09/30 10:21:29;;;;;;;12.97;11.87;;;;;;;12.39;93.63;96242.28;4928408;29;20200;-69
2022/09/30 10:23:58;;;;;;;15.17;14.17;;;;;;;12.43;82.70;96245.97;4924442;29;20269;-69
2022/09/30 10:26:28;;;;;;;13.20;12.43;;;;;;;12.67;79.87;96236.69;4922892;29;20678;-69
2022/09/30 10:28:55;;;;;;;14.30;13.37;;;;;;;12.60;74.99;96251.09;4935975;29;20202;-69
2022/09/30 10:31:38;;;;;;;14.87;13.80;;;;;;;12.52;78.80;96246.31;4922773;29;20195;-69
2022/09/30 10:34:33;;;;;;;11.30;10.63;;;;;;;12.61;77.65;96252.69;4909111;29;20253;-69
2022/09/30 10:37:06;;;;;;;12.33;11.53;;;;;;;12.73;81.16;96259.34;4917245;29;20201;-69
2022/09/30 10:39:36;;;;;;;12.17;11.03;;;;;;;12.79;78.49;96262.81;4931272;29;20213;-70
2022/09/30 10:42:11;;;;;;;81.73;77.20;;;;;;;12.22;72.94;96263.41;4919120;29;20175;-69
2022/09/30 10:44:51;;;;;;;95.53;90.23;;;;;;;12.06;75.40;96267.75;4924164;29;20193;-69
2022/09/30 10:47:19;;;;;;;75.47;71.33;;;;;;;12.02;78.33;96269.28;4922158;29;20183;-69
2022/09/30 10:49:56;;;;;;;61.70;58.03;;;;;;;11.57;80.52;96255.66;4918841;29;20544;-69
2022/09/30 10:52:27;;;;;;;73.17;69.20;;;;;;;11.73;74.90;96252.16;4918837;29;20186;-69
2022/09/30 10:54:57;;;;;;;45.50;42.73;;;;;;;11.91;81.01;96254.47;4931729;29;20229;-69
2022/09/30 10:57:30;;;;;;;16.13;14.77;;;;;;;12.05;86.41;96258.28;4934367;29;20253;-69
2022/09/30 11:00:00;;;;;;;14.63;13.23;;;;;;;12.06;89.75;96259.88;4929681;29;20190;-69
2022/09/30 11:02:38;;;;;;;10.23;9.43;;;;;;;12.31;86.52;96251.44;4932630;29;20237;-69
2022/09/30 11:05:14;;;;;;;11.70;10.80;;;;;;;12.44;82.94;96258.09;4917427;29;20187;-69
2022/09/30 11:08:02;;;;;;;15.37;14.47;;;;;;;12.13;79.83;96256.25;4921720;29;20180;-69
2022/09/30 11:10:46;;;;;;;12.97;12.03;;;;;;;12.57;77.32;96251.63;4927932;29;20332;-69
2022/09/30 11:13:17;;;;;;;11.23;10.30;;;;;;;12.67;78.21;96252.47;4918258;29;20579;-69
2022/09/30 11:16:07;;;;;;;34.37;32.33;;;;;;;12.46;75.12;96253.38;4918519;29;20183;-69
2022/09/30 11:18:41;;;;;;;55.27;52.00;;;;;;;12.33;79.42;96254.56;4928953;29;20194;-69
2022/09/30 11:21:17;;;;;;;65.03;61.30;;;;;;;12.38;77.26;96245.94;4918612;29;20183;-69
2022/09/30 11:23:49;;;;;;;49.00;46.27;;;;;;;12.63;74.42;96248.78;4925597;29;20212;-69
2022/09/30 11:26:15;;;;;;;69.27;65.20;;;;;;;12.76;76.38;96247.56;4929029;29;20262;-70
2022/09/30 11:29:04;;;;;;;56.67;53.47;;;;;;;12.67;76.87;96252.47;4925147;29;20270;-69
2022/09/30 11:31:34;;;;;;;77.17;72.80;;;;;;;12.68;75.72;96253.28;4911197;29;20193;-69
2022/09/30 11:34:26;;;;;;;101.70;96.10;;;;;;;12.64;76.36;96250.38;4915592;29;20637;-70
2022/09/30 11:37:04;;;;;;;49.77;47.00;;;;;;;12.53;80.79;96253.16;4917043;29;20179;-70
2022/09/30 11:39:53;;;;;;;60.13;56.67;;;;;;;13.01;77.69;96260.84;4924832;29;20182;-70
2022/09/30 11:42:28;;;;;;;49.03;46.27;;;;;;;12.60;77.02;96256.34;4916912;29;20187;-69